Time;durP1;ratioP1;P1;durP2;ratioP2;P2;SDS_P1;SDS_P2;PMS_P1;PMS_P2;Temp;Humidity;BMP_temperature;BMP_pressure;BME280_temperature;BME280_humidity;BME280_pressure;Samples;Min_cycle;Max_cycle;Signal;HPM_P1;HPM_P2
2023/08/10 00:00:26;;;;;;;10.20;2.17;;;;;;;;;;4893457;29;20076;-71
2023/08/10 00:02:52;;;;;;;6.65;1.98;;;;;;;;;;4884211;29;20052;-73
2023/08/10 00:05:19;;;;;;;11.25;2.30;;;;;;;;;;4896772;29;20044;-73
2023/08/10 00:07:45;;;;;;;11.68;2.45;;;;;;;;;;4881527;29;20100;-73
2023/08/10 00:10:11;;;;;;;8.27;2.35;;;;;;;;;;4891388;29;20204;-73
2023/08/10 00:12:37;;;;;;;7.18;2.20;;;;;;;;;;4897266;29;20056;-74
2023/08/10 00:15:04;;;;;;;13.55;2.40;;;16.00;99.90;;;;;;4897128;29;20087;-74
2023/08/10 00:17:30;;;;;;;7.40;1.88;;;;;;;;;;4891616;29;20048;-74
2023/08/10 00:19:56;;;;;;;7.20;2.28;;;;;;;;;;4883577;29;20056;-74
2023/08/10 00:22:23;;;;;;;10.23;2.50;;;;;;;;;;4900029;29;20044;-74
2023/08/10 00:24:49;;;;;;;8.43;2.70;;;;;;;;;;4884018;29;20431;-74
2023/08/10 00:27:15;;;;;;;10.20;2.22;;;;;;;;;;4896514;29;20375;-73
2023/08/10 00:29:41;;;;;;;9.95;2.72;;;;;;;;;;4890404;29;20072;-73
2023/08/10 00:32:07;;;;;;;6.88;2.25;;;;;;;;;;4884307;29;20199;-74
2023/08/10 00:34:33;;;;;;;7.55;2.30;;;;;;;;;;4899784;29;20499;-73
2023/08/10 00:36:59;;;;;;;8.63;1.80;;;;;;;;;;4899596;29;20055;-74
2023/08/10 00:39:26;;;;;;;9.27;2.35;;;;;;;;;;4898852;29;20075;-74
2023/08/10 00:41:53;;;;;;;6.68;2.35;;;;;;;;;;4882571;29;20064;-73
2023/08/10 00:44:19;;;;;;;10.10;2.28;;;;;;;;;;4895728;29;20566;-73
2023/08/10 00:46:46;;;;;;;7.25;2.15;;;;;;;;;;4894920;29;20048;-73
2023/08/10 00:49:12;;;;;;;11.52;2.92;;;;;;;;;;4900524;29;20040;-74
2023/08/10 00:51:38;;;;;;;6.40;2.03;;;;;;;;;;4896509;29;20129;-73
2023/08/10 00:54:06;;;;;;;7.70;2.20;;;15.70;99.90;;;;;;4881133;29;20080;-74
2023/08/10 00:56:32;;;;;;;8.95;2.50;;;;;;;;;;4892969;29;20398;-73
2023/08/10 00:58:58;;;;;;;9.50;2.13;;;;;;;;;;4899401;29;20554;-73
2023/08/10 01:01:24;;;;;;;10.40;2.90;;;;;;;;;;4896190;29;20044;-74
2023/08/10 01:03:51;;;;;;;5.75;2.17;;;;;;;;;;4889952;29;20041;-73
2023/08/10 01:06:17;;;;;;;4.55;2.10;;;;;;;;;;4891397;29;20116;-73
2023/08/10 01:09:03;;;;;;;9.98;2.00;;;15.50;99.90;;;;;;4899247;29;20044;-74
2023/08/10 01:11:42;;;;;;;5.90;2.10;;;15.20;99.90;;;;;;4898827;29;20051;-73
2023/08/10 01:14:19;;;;;;;9.25;2.30;;;15.20;99.90;;;;;;4898561;29;20045;-74
2023/08/10 01:16:45;;;;;;;6.10;2.33;;;;;;;;;;4898718;29;20048;-73
2023/08/10 01:19:32;;;;;;;7.97;2.40;;;15.30;99.90;;;;;;4883483;29;20044;-74
2023/08/10 01:22:12;;;;;;;14.20;3.25;;;15.20;99.90;;;;;;4898882;29;20049;-74
2023/08/10 01:24:44;;;;;;;6.57;2.20;;;;;;;;;;4899138;29;20055;-73
2023/08/10 01:27:11;;;;;;;9.00;2.88;;;;;;;;;;4898569;29;20052;-73
2023/08/10 01:29:38;;;;;;;11.82;2.28;;;;;;;;;;4898429;29;20059;-73
2023/08/10 01:32:04;;;;;;;6.28;2.40;;;;;;;;;;4895473;29;20127;-74
2023/08/10 01:34:30;;;;;;;7.10;2.40;;;;;;;;;;4880052;29;20052;-73
2023/08/10 01:36:57;;;;;;;8.98;2.42;;;;;;;;;;4870097;29;20483;-74
2023/08/10 01:39:23;;;;;;;9.43;2.38;;;;;;;;;;4882223;29;20064;-74
2023/08/10 01:41:49;;;;;;;8.10;2.45;;;;;;;;;;4898487;29;20226;-74
2023/08/10 01:44:15;;;;;;;8.85;2.15;;;;;;;;;;4898804;29;20084;-74
2023/08/10 01:46:45;;;;;;;9.52;2.40;;;14.90;99.90;;;;;;4896714;29;20056;-74
2023/08/10 01:49:11;;;;;;;6.65;2.50;;;15.00;99.90;;;;;;4898131;29;20123;-73
2023/08/10 01:51:38;;;;;;;11.38;2.63;;;;;;;;;;4894820;29;20510;-73
2023/08/10 01:54:07;;;;;;;6.75;2.30;;;14.80;99.90;;;;;;4879651;29;20037;-74
2023/08/10 01:56:33;;;;;;;7.10;2.55;;;14.70;99.90;;;;;;4895709;29;20080;-74
2023/08/10 01:59:00;;;;;;;5.88;2.40;;;;;;;;;;4898284;29;20549;-74
2023/08/10 02:01:26;;;;;;;8.90;2.38;;;;;;;;;;4882475;29;20124;-74
2023/08/10 02:03:52;;;;;;;6.95;2.45;;;;;;;;;;4894916;29;20522;-74
2023/08/10 02:06:18;;;;;;;13.52;2.60;;;;;;;;;;4878335;29;20052;-73
2023/08/10 02:08:44;;;;;;;10.15;2.70;;;;;;;;;;4898008;29;20424;-74
2023/08/10 02:11:10;;;;;;;7.32;2.72;;;;;;;;;;4894929;29;20135;-73
2023/08/10 02:13:36;;;;;;;9.82;2.60;;;;;;;;;;4879400;29;20049;-74
2023/08/10 02:16:03;;;;;;;10.27;2.60;;;;;;;;;;4890782;29;20399;-73
2023/08/10 02:18:30;;;;;;;7.22;2.90;;;;;;;;;;4898247;29;20088;-70
2023/08/10 02:20:56;;;;;;;4.82;2.75;;;;;;;;;;4882380;29;20407;-70
2023/08/10 02:23:22;;;;;;;10.65;2.28;;;;;;;;;;4897582;29;20048;-70
2023/08/10 02:25:48;;;;;;;9.23;2.60;;;;;;;;;;4897735;29;20498;-70
2023/08/10 02:28:14;;;;;;;4.72;2.40;;;;;;;;;;4897696;29;20044;-70
2023/08/10 02:30:41;;;;;;;6.32;2.40;;;;;;;;;;4882054;29;20032;-70
2023/08/10 02:33:07;;;;;;;6.28;2.50;;;;;;;;;;4894756;29;20148;-70
2023/08/10 02:35:33;;;;;;;5.18;2.40;;;;;;;;;;4884101;29;20048;-70
2023/08/10 02:37:59;;;;;;;8.00;2.60;;;;;;;;;;4897836;29;20399;-70
2023/08/10 02:40:25;;;;;;;6.00;2.65;;;;;;;;;;4897709;29;20132;-70
2023/08/10 02:42:51;;;;;;;9.45;2.70;;;;;;;;;;4894231;29;20510;-70
2023/08/10 02:45:18;;;;;;;9.43;2.85;;;;;;;;;;4880599;29;20048;-70
2023/08/10 02:47:44;;;;;;;11.43;2.72;;;;;;;;;;4897167;29;20044;-70
2023/08/10 02:50:12;;;;;;;6.43;2.97;;;;;;;;;;4897200;29;20051;-70
2023/08/10 02:52:40;;;;;;;10.25;3.10;;;;;;;;;;4897172;29;20044;-70
2023/08/10 02:55:06;;;;;;;7.43;2.67;;;15.90;99.90;;;;;;4881236;29;20047;-70
2023/08/10 02:57:32;;;;;;;12.63;3.20;;;;;;;;;;4881538;29;20083;-70
2023/08/10 02:59:58;;;;;;;9.45;2.50;;;;;;;;;;4897190;29;20059;-70
2023/08/10 03:02:26;;;;;;;14.18;3.65;;;;;;;;;;4884929;29;20060;-69
2023/08/10 03:04:52;;;;;;;8.80;3.03;;;;;;;;;;4897416;29;20056;-69
2023/08/10 03:07:19;;;;;;;11.50;3.22;;;;;;;;;;4881256;29;20041;-69
2023/08/10 03:09:45;;;;;;;9.85;2.80;;;;;;;;;;4896873;29;20052;-69
2023/08/10 03:12:12;;;;;;;6.60;3.05;;;;;;;;;;4893765;29;20047;-69
2023/08/10 03:14:38;;;;;;;10.93;3.03;;;;;;;;;;4879501;29;20395;-69
2023/08/10 03:17:04;;;;;;;11.80;2.60;;;;;;;;;;4883585;29;20044;-69
2023/08/10 03:19:30;;;;;;;11.00;2.95;;;;;;;;;;4878261;29;20132;-70
2023/08/10 03:21:56;;;;;;;8.23;2.88;;;;;;;;;;4893615;29;20403;-73
2023/08/10 03:24:23;;;;;;;7.97;2.70;;;;;;;;;;4894003;29;20084;-72
2023/08/10 03:26:49;;;;;;;15.43;3.15;;;;;;;;;;4896903;29;20048;-72
2023/08/10 03:29:15;;;;;;;12.60;3.70;;;;;;;;;;4896751;29;20037;-72
2023/08/10 03:31:41;;;;;;;12.70;3.50;;;;;;;;;;4896353;29;20044;-72
2023/08/10 03:34:07;;;;;;;7.88;3.47;;;;;;;;;;4893097;29;20045;-72
2023/08/10 03:36:33;;;;;;;13.82;3.30;;;;;;;;;;4884197;29;20037;-72
2023/08/10 03:38:59;;;;;;;6.63;3.15;;;;;;;;;;4896699;29;20100;-69
2023/08/10 03:41:26;;;;;;;9.68;3.60;;;;;;;;;;4896363;29;20589;-69
2023/08/10 03:43:52;;;;;;;9.73;3.40;;;;;;;;;;4881063;29;20127;-69
2023/08/10 03:46:18;;;;;;;9.00;3.25;;;;;;;;;;4896595;29;20498;-72
2023/08/10 03:48:44;;;;;;;9.35;3.00;;;;;;;;;;4893379;29;20077;-73
2023/08/10 03:51:10;;;;;;;9.27;3.13;;;;;;;;;;4868314;29;20048;-72
2023/08/10 03:53:36;;;;;;;9.88;2.92;;;;;;;;;;4877898;29;20395;-73
2023/08/10 03:56:02;;;;;;;5.95;2.80;;;;;;;;;;4877763;29;20124;-73
2023/08/10 03:58:28;;;;;;;9.57;3.05;;;;;;;;;;4893504;29;20049;-73
2023/08/10 04:00:54;;;;;;;9.80;3.30;;;;;;;;;;4896624;29;20060;-73
2023/08/10 04:03:21;;;;;;;9.98;3.63;;;;;;;;;;4896458;29;20048;-73
2023/08/10 04:05:47;;;;;;;9.73;3.13;;;;;;;;;;4896200;29;20041;-73
2023/08/10 04:08:13;;;;;;;14.30;3.80;;;;;;;;;;4892865;29;20045;-73
2023/08/10 04:10:39;;;;;;;10.13;3.67;;;;;;;;;;4862214;29;20487;-73
2023/08/10 04:13:06;;;;;;;10.05;3.17;;;15.00;99.90;;;;;;4887144;29;20095;-73
2023/08/10 04:15:32;;;;;;;7.03;3.40;;;;;;;;;;4896246;29;20454;-73
2023/08/10 04:17:58;;;;;;;9.68;3.67;;;;;;;;;;4880485;29;20518;-73
2023/08/10 04:20:24;;;;;;;13.93;3.45;;;;;;;;;;4896610;29;20397;-73
2023/08/10 04:22:51;;;;;;;7.93;3.00;;;;;;;;;;4892877;29;20055;-73
2023/08/10 04:25:17;;;;;;;10.27;3.55;;;;;;;;;;4890836;29;20108;-73
2023/08/10 04:27:43;;;;;;;10.25;3.20;;;;;;;;;;4896041;29;20049;-73
2023/08/10 04:30:10;;;;;;;7.68;3.17;;;15.90;99.90;;;;;;4881017;29;20406;-73
2023/08/10 04:32:36;;;;;;;11.20;3.90;;;14.80;99.90;;;;;;4892819;29;20048;-73
2023/08/10 04:35:02;;;;;;;13.15;3.75;;;;;;;;;;4877568;29;20093;-73
2023/08/10 04:37:28;;;;;;;8.75;3.03;;;;;;;;;;4879315;29;20060;-73
2023/08/10 04:39:55;;;;;;;8.95;3.45;;;;;;;;;;4895651;29;20048;-73
2023/08/10 04:42:21;;;;;;;12.10;3.47;;;;;;;;;;4896025;29;20048;-73
2023/08/10 04:44:47;;;;;;;13.48;3.60;;;;;;;;;;4897533;29;20051;-73
2023/08/10 04:47:13;;;;;;;10.20;3.88;;;;;;;;;;4897716;29;20048;-73
2023/08/10 04:49:39;;;;;;;8.85;3.80;;;;;;;;;;4899252;29;20048;-73
2023/08/10 04:52:05;;;;;;;11.93;3.70;;;;;;;;;;4896228;29;20044;-73
2023/08/10 04:54:31;;;;;;;10.70;3.50;;;;;;;;;;4893539;29;20085;-73
2023/08/10 04:56:57;;;;;;;9.85;3.60;;;;;;;;;;4896206;29;20100;-73
2023/08/10 04:59:24;;;;;;;11.00;4.07;;;;;;;;;;4896271;29;20394;-73
2023/08/10 05:01:50;;;;;;;8.23;3.50;;;;;;;;;;4895739;29;20133;-73
2023/08/10 05:04:16;;;;;;;12.88;3.80;;;;;;;;;;4896163;29;20049;-73
2023/08/10 05:06:42;;;;;;;14.85;4.07;;;;;;;;;;4896500;29;20132;-70
2023/08/10 05:09:09;;;;;;;9.15;3.75;;;;;;;;;;4895827;29;20045;-70
2023/08/10 05:11:35;;;;;;;9.90;3.17;;;;;;;;;;4895877;29;20041;-70
2023/08/10 05:14:01;;;;;;;7.07;3.53;;;;;;;;;;4878040;29;20049;-69
2023/08/10 05:16:27;;;;;;;7.18;3.42;;;;;;;;;;4880316;29;20049;-70
2023/08/10 05:18:55;;;;;;;9.95;3.63;;;;;;;;;;4884768;29;20069;-69
2023/08/10 05:21:22;;;;;;;11.95;3.80;;;;;;;;;;4898604;29;20054;-73
2023/08/10 05:23:48;;;;;;;15.18;3.40;;;;;;;;;;4895689;29;20044;-73
2023/08/10 05:26:14;;;;;;;11.95;3.63;;;;;;;;;;4864730;29;20510;-73
2023/08/10 05:28:40;;;;;;;10.40;3.92;;;;;;;;;;4886802;29;20055;-73
2023/08/10 05:31:07;;;;;;;9.63;3.80;;;;;;;;;;4898220;29;20491;-73
2023/08/10 05:33:33;;;;;;;7.72;3.63;;;;;;;;;;4895681;29;20091;-73
2023/08/10 05:35:59;;;;;;;8.90;3.95;;;;;;;;;;4895427;29;20036;-72
2023/08/10 05:38:28;;;;;;;11.63;4.00;;;;;;;;;;4898303;29;20488;-73
2023/08/10 05:40:56;;;;;;;16.33;5.47;;;;;;;;;;4882687;29;20056;-73
2023/08/10 05:43:22;;;;;;;12.30;4.70;;;;;;;;;;4898413;29;20052;-73
2023/08/10 05:45:48;;;;;;;10.55;4.68;;;;;;;;;;4898742;29;20173;-73
2023/08/10 05:48:14;;;;;;;12.77;4.95;;;;;;;;;;4898172;29;20099;-72
2023/08/10 05:50:41;;;;;;;18.35;4.65;;;;;;;;;;4898398;29;20112;-73
2023/08/10 05:53:07;;;;;;;15.15;4.75;;;;;;;;;;4898403;29;20062;-73
2023/08/10 05:55:34;;;;;;;12.32;4.50;;;15.80;99.90;;;;;;4897831;29;20028;-73
2023/08/10 05:58:01;;;;;;;15.52;4.32;;;;;;;;;;4880457;29;20455;-73
2023/08/10 06:00:27;;;;;;;13.52;4.78;;;;;;;;;;4896976;29;20053;-73
2023/08/10 06:02:53;;;;;;;15.10;4.93;;;;;;;;;;4896247;29;20044;-73
2023/08/10 06:05:19;;;;;;;9.23;4.45;;;15.00;99.90;;;;;;4898150;29;20040;-73
2023/08/10 06:07:47;;;;;;;15.07;5.22;;;;;;;;;;4896991;29;20056;-73
2023/08/10 06:10:14;;;;;;;13.00;4.80;;;15.80;99.90;;;;;;4864268;29;20491;-74
2023/08/10 06:12:41;;;;;;;9.73;5.00;;;;;;;;;;4879669;29;20075;-74
2023/08/10 06:15:08;;;;;;;14.88;7.28;;;;;;;;;;4891277;29;20056;-73
2023/08/10 06:17:34;;;;;;;11.75;4.55;;;;;;;;;;4879412;29;20084;-73
2023/08/10 06:20:03;;;;;;;15.18;4.25;;;;;;;;;;4890246;29;20156;-73
2023/08/10 06:22:29;;;;;;;11.27;4.47;;;;;;;;;;4898076;29;20048;-73
2023/08/10 06:24:56;;;;;;;9.05;4.35;;;;;;;;;;4882204;29;20108;-69
2023/08/10 06:27:22;;;;;;;22.77;5.28;;;;;;;;;;4897667;29;20044;-69
2023/08/10 06:29:48;;;;;;;11.38;4.50;;;;;;;;;;4897255;29;20402;-69
2023/08/10 06:32:14;;;;;;;11.45;4.60;;;;;;;;;;4897417;29;20048;-69
2023/08/10 06:34:41;;;;;;;10.77;4.55;;;;;;;;;;4881901;29;20587;-74
2023/08/10 06:37:07;;;;;;;13.93;4.20;;;;;;;;;;4895306;29;20044;-75
2023/08/10 06:39:34;;;;;;;16.67;4.82;;;;;;;;;;4897459;29;20376;-74
2023/08/10 06:42:00;;;;;;;10.05;3.90;;;;;;;;;;4897734;29;20064;-74
2023/08/10 06:44:26;;;;;;;20.92;5.03;;;;;;;;;;4897824;29;20064;-74
2023/08/10 06:46:52;;;;;;;18.77;4.72;;;;;;;;;;4882253;29;20411;-74
2023/08/10 06:49:21;;;;;;;11.23;4.32;;;;;;;;;;4881807;29;20067;-74
2023/08/10 06:51:47;;;;;;;10.93;4.63;;;;;;;;;;4897539;29;20045;-73
2023/08/10 06:54:13;;;;;;;13.65;5.00;;;;;;;;;;4897400;29;20059;-70
2023/08/10 06:56:39;;;;;;;13.93;4.40;;;;;;;;;;4897497;29;20549;-74
2023/08/10 06:59:06;;;;;;;8.10;3.85;;;;;;;;;;4881858;29;20059;-74
2023/08/10 07:01:32;;;;;;;8.88;3.88;;;;;;;;;;4897050;29;20529;-70
2023/08/10 07:03:59;;;;;;;9.57;4.05;;;;;;;;;;4881735;29;20088;-70
2023/08/10 07:06:26;;;;;;;8.77;3.35;;;;;;;;;;4897006;29;20052;-70
2023/08/10 07:08:53;;;;;;;9.15;3.60;;;;;;;;;;4897071;29;20052;-70
2023/08/10 07:11:21;;;;;;;9.70;4.07;;;16.70;99.90;;;;;;4896152;29;20049;-70
2023/08/10 07:13:48;;;;;;;19.08;3.90;;;;;;;;;;4881475;29;20131;-70
2023/08/10 07:16:15;;;;;;;15.02;3.80;;;;;;;;;;4881431;29;20044;-70
2023/08/10 07:18:41;;;;;;;6.82;3.33;;;;;;;;;;4896944;29;20095;-70
2023/08/10 07:21:07;;;;;;;12.65;3.50;;;;;;;;;;4896836;29;20049;-70
2023/08/10 07:23:34;;;;;;;11.48;3.22;;;;;;;;;;4896758;29;20107;-70
2023/08/10 07:26:00;;;;;;;8.57;3.05;;;;;;;;;;4896899;29;20063;-70
2023/08/10 07:28:26;;;;;;;14.48;3.58;;;;;;;;;;4896944;29;20085;-70
2023/08/10 07:30:53;;;;;;;12.65;3.03;;;;;;;;;;4896743;29;20048;-70
2023/08/10 07:33:19;;;;;;;7.80;2.95;;;;;;;;;;4880914;29;20487;-70
2023/08/10 07:35:45;;;;;;;12.43;3.10;;;17.20;99.90;;;;;;4896390;29;20074;-70
2023/08/10 07:38:12;;;;;;;6.82;2.78;;;;;;;;;;4896465;29;20127;-70
2023/08/10 07:40:38;;;;;;;9.00;2.47;;;;;;;;;;4880980;29;20056;-70
2023/08/10 07:43:04;;;;;;;9.77;2.65;;;;;;;;;;4897677;29;20464;-70
2023/08/10 07:45:31;;;;;;;12.32;2.90;;;;;;;;;;4896670;29;20108;-70
2023/08/10 07:47:57;;;;;;;13.15;2.72;;;;;;;;;;4881076;29;20080;-70
2023/08/10 07:50:23;;;;;;;14.32;2.20;;;;;;;;;;4880905;29;20043;-71
2023/08/10 07:52:49;;;;;;;14.75;3.00;;;;;;;;;;4896741;29;20040;-72
2023/08/10 07:55:15;;;;;;;14.50;3.03;;;;;;;;;;4880841;29;20051;-71
2023/08/10 07:57:42;;;;;;;12.30;2.30;;;;;;;;;;4896444;29;20049;-71
2023/08/10 08:00:11;;;;;;;14.07;2.50;;;;;;;;;;4896386;29;20131;-71
2023/08/10 08:02:37;;;;;;;6.75;2.33;;;17.70;99.90;;;;;;4896426;29;20133;-72
2023/08/10 08:05:04;;;;;;;13.32;2.58;;;;;;;;;;4897915;29;20040;-71
2023/08/10 08:07:30;;;;;;;14.02;2.47;;;;;;;;;;4896311;29;20103;-71
2023/08/10 08:09:57;;;;;;;9.95;2.78;;;17.90;99.90;;;;;;4896370;29;20053;-71
2023/08/10 08:12:26;;;;;;;5.05;2.17;;;;;;;;;;4896249;29;20049;-71
2023/08/10 08:14:52;;;;;;;10.00;2.55;;;;;;;;;;4896325;29;20491;-71
2023/08/10 08:17:18;;;;;;;12.75;2.38;;;;;;;;;;4896304;29;20048;-71
2023/08/10 08:19:45;;;;;;;5.78;2.10;;;;;;;;;;4896257;29;20060;-71
2023/08/10 08:22:11;;;;;;;9.40;2.47;;;;;;;;;;4882468;29;20128;-72
2023/08/10 08:24:37;;;;;;;10.35;2.42;;;18.30;99.90;;;;;;4899991;29;20053;-72
2023/08/10 08:27:03;;;;;;;10.27;2.30;;;17.00;99.90;;;;;;4899876;29;20048;-72
2023/08/10 08:29:31;;;;;;;12.40;2.83;;;;;;;;;;4884472;29;20045;-75
2023/08/10 08:31:57;;;;;;;11.63;2.33;;;17.70;99.90;;;;;;4900130;29;20487;-75
2023/08/10 08:34:23;;;;;;;13.18;2.28;;;;;;;;;;4900130;29;20056;-75
2023/08/10 08:36:49;;;;;;;11.07;2.53;;;18.20;99.90;;;;;;4899785;29;20048;-75
2023/08/10 08:39:15;;;;;;;14.13;2.47;;;18.30;99.90;;;;;;4884510;29;20046;-75
2023/08/10 08:41:42;;;;;;;12.27;2.53;;;18.40;99.90;;;;;;4899553;29;20410;-75
2023/08/10 08:44:09;;;;;;;4.05;2.28;;;;;;;;;;4901194;29;20454;-75
2023/08/10 08:46:38;;;;;;;4.10;2.50;;;;;;;;;;4884189;29;20056;-75
2023/08/10 08:49:05;;;;;;;6.55;2.60;;;17.70;99.90;;;;;;4899541;29;20495;-75
2023/08/10 08:51:31;;;;;;;12.70;2.67;;;18.50;99.90;;;;;;4899864;29;20124;-71
2023/08/10 08:54:01;;;;;;;14.02;2.97;;;17.60;99.90;;;;;;4899789;29;20044;-72
2023/08/10 08:56:27;;;;;;;6.53;2.45;;;;;;;;;;4884031;29;20056;-72
2023/08/10 08:58:54;;;;;;;11.80;2.90;;;;;;;;;;4899297;29;20131;-74
2023/08/10 09:01:20;;;;;;;14.63;3.00;;;;;;;;;;4897716;29;20041;-75
2023/08/10 09:03:46;;;;;;;11.00;2.60;;;;;;;;;;4897724;29;20044;-74
2023/08/10 09:06:12;;;;;;;8.90;2.58;;;;;;;;;;4895492;29;20491;-75
2023/08/10 09:08:39;;;;;;;11.07;2.88;;;;;;;;;;4893795;29;20173;-75
2023/08/10 09:11:05;;;;;;;13.82;3.50;;;;;;;;;;4898932;29;20131;-75
2023/08/10 09:13:32;;;;;;;9.93;2.83;;;;;;;;;;4900390;29;20049;-75
2023/08/10 09:16:11;;;;;;;13.73;2.90;;;;;;;;;;4899320;29;20049;-75
2023/08/10 09:18:44;;;;;;;9.18;2.85;;;18.20;99.90;;;;;;4898981;29;20052;-74
2023/08/10 09:21:16;;;;;;;15.63;2.92;;;18.10;99.90;;;;;;4898873;29;20541;-74
2023/08/10 09:23:47;;;;;;;11.68;2.92;;;18.30;99.90;;;;;;4898625;29;20507;-75
2023/08/10 09:26:18;;;;;;;10.52;2.72;;;;;;;;;;4909257;29;20040;-74
2023/08/10 09:28:44;;;;;;;12.48;2.90;;;;;;;;;;4917922;29;20046;-74
2023/08/10 09:31:11;;;;;;;6.70;2.40;;;;;;;;;;4899769;29;20037;-75
2023/08/10 09:33:38;;;;;;;10.55;3.08;;;18.50;99.90;;;;;;4897760;29;20045;-74
2023/08/10 09:36:08;;;;;;;5.68;2.55;;;;;;;;;;4899254;29;20036;-74
2023/08/10 09:38:35;;;;;;;14.60;3.22;;;;;;;;;;4899602;29;20078;-74
2023/08/10 09:41:10;;;;;;;8.77;2.95;;;;;;;;;;4882953;29;20459;-74
2023/08/10 09:43:45;;;;;;;8.43;2.80;;;18.90;99.90;;;;;;4905428;29;20047;-74
2023/08/10 09:46:14;;;;;;;8.82;2.60;;;18.60;99.90;;;;;;4902204;29;20398;-75
2023/08/10 09:48:42;;;;;;;7.97;2.92;;;18.70;99.90;;;;;;4905671;29;20045;-74
2023/08/10 09:51:09;;;;;;;8.93;2.92;;;;;;;;;;4882873;29;20041;-74
2023/08/10 09:53:35;;;;;;;17.42;4.00;;;;;;;;;;4898576;29;20100;-75
2023/08/10 09:56:02;;;;;;;4.57;2.78;;;17.80;99.90;;;;;;4898357;29;20048;-75
2023/08/10 09:58:29;;;;;;;9.55;3.28;;;;;;;;;;4898539;29;20407;-75
2023/08/10 10:00:55;;;;;;;10.45;2.80;;;18.70;99.90;;;;;;4882653;29;20052;-75
2023/08/10 10:03:22;;;;;;;11.43;3.10;;;18.20;99.90;;;;;;4898358;29;20044;-75
2023/08/10 10:05:51;;;;;;;10.23;3.40;;;18.80;99.90;;;;;;4898513;29;20080;-75
2023/08/10 10:08:18;;;;;;;10.52;3.22;;;;;;;;;;4898165;29;20112;-75
2023/08/10 10:10:45;;;;;;;10.18;3.28;;;;;;;;;;4891076;29;20052;-75
2023/08/10 10:13:15;;;;;;;6.72;3.50;;;20.00;99.90;;;;;;4881633;29;20041;-75
2023/08/10 10:15:45;;;;;;;7.05;3.33;;;18.90;99.90;;;;;;4879447;29;20040;-75
2023/08/10 10:18:12;;;;;;;17.58;3.60;;;18.90;99.90;;;;;;4864497;29;20049;-75
2023/08/10 10:20:40;;;;;;;7.53;3.33;;;19.40;99.90;;;;;;4880700;29;20049;-74
2023/08/10 10:23:14;;;;;;;11.65;4.28;;;20.10;99.90;;;;;;4901592;29;20091;-74
2023/08/10 10:25:55;;;;;;;10.80;3.40;;;19.60;99.90;;;;;;4874892;29;20059;-75
2023/08/10 10:28:21;;;;;;;10.23;3.33;;;20.40;99.90;;;;;;4889375;29;20053;-74
2023/08/10 10:31:10;;;;;;;10.05;3.65;;;19.80;99.30;;;;;;4889022;29;20051;-75
2023/08/10 10:33:38;;;;;;;14.93;4.22;;;19.30;99.90;;;;;;4888965;29;20045;-74
2023/08/10 10:36:13;;;;;;;10.07;3.92;;;19.70;99.90;;;;;;4891206;29;20429;-75
2023/08/10 10:38:46;;;;;;;14.82;4.35;;;19.70;99.80;;;;;;4889214;29;20064;-71
2023/08/10 10:41:30;;;;;;;12.48;3.80;;;19.90;99.90;;;;;;4903529;29;20057;-71
2023/08/10 10:43:58;;;;;;;11.60;3.72;;;;;;;;;;4890351;29;20057;-72
2023/08/10 10:46:33;;;;;;;12.93;3.58;;;20.60;99.90;;;;;;4889968;29;20127;-72
2023/08/10 10:48:59;;;;;;;8.27;3.85;;;20.00;99.50;;;;;;4890986;29;20040;-71
2023/08/10 10:51:28;;;;;;;15.70;3.72;;;19.70;99.40;;;;;;4893225;29;20047;-72
2023/08/10 10:53:54;;;;;;;7.82;3.33;;;;;;;;;;4887798;29;20052;-71
2023/08/10 10:56:21;;;;;;;10.80;4.55;;;19.70;99.30;;;;;;4885737;29;20041;-71
2023/08/10 10:58:47;;;;;;;8.57;3.30;;;20.60;99.90;;;;;;4883976;29;20057;-72
2023/08/10 11:01:19;;;;;;;12.90;3.92;;;20.20;99.70;;;;;;4882547;29;20048;-72
2023/08/10 11:03:56;;;;;;;10.00;4.03;;;20.30;99.80;;;;;;4894707;29;20148;-71
2023/08/10 11:06:25;;;;;;;17.95;4.00;;;20.40;99.90;;;;;;4888600;29;20081;-72
2023/08/10 11:08:53;;;;;;;8.20;4.07;;;20.20;99.90;;;;;;4890579;29;20109;-75
2023/08/10 11:11:19;;;;;;;9.52;4.25;;;20.50;99.90;;;;;;4908705;29;20127;-75
2023/08/10 11:13:45;;;;;;;10.18;4.32;;;;;;;;;;4898626;29;20128;-75
2023/08/10 11:16:12;;;;;;;13.05;4.65;;;;;;;;;;4889531;29;20040;-75
2023/08/10 11:18:38;;;;;;;15.52;4.47;;;;;;;;;;4895029;29;20048;-75
2023/08/10 11:21:08;;;;;;;12.15;4.35;;;20.50;98.90;;;;;;4893265;29;20049;-75
2023/08/10 11:23:35;;;;;;;7.60;3.38;;;18.80;99.90;;;;;;4891641;29;20076;-75
2023/08/10 11:26:02;;;;;;;13.25;4.07;;;19.30;99.90;;;;;;4894355;29;20040;-74
2023/08/10 11:28:28;;;;;;;7.38;3.85;;;19.30;99.90;;;;;;4892241;29;20119;-72
2023/08/10 11:31:01;;;;;;;10.65;4.60;;;19.50;99.80;;;;;;4890518;29;20040;-71
2023/08/10 11:33:27;;;;;;;12.13;4.65;;;20.30;99.90;;;;;;4876113;29;20047;-72
2023/08/10 11:35:53;;;;;;;18.35;5.75;;;;;;;;;;4893339;29;20386;-71
2023/08/10 11:38:20;;;;;;;10.30;4.80;;;20.20;99.90;;;;;;4893238;29;20525;-72
2023/08/10 11:40:46;;;;;;;14.75;7.80;;;;;;;;;;4890700;29;20060;-72
2023/08/10 11:43:15;;;;;;;15.23;4.93;;;19.40;99.90;;;;;;4879998;29;20049;-72
2023/08/10 11:45:42;;;;;;;10.65;5.10;;;;;;;;;;4890036;29;20049;-71
2023/08/10 11:48:11;;;;;;;12.85;5.10;;;19.10;99.90;;;;;;4894948;29;20124;-71
2023/08/10 11:50:38;;;;;;;12.65;5.32;;;20.10;99.90;;;;;;4894193;29;20040;-71
2023/08/10 11:53:16;;;;;;;10.25;4.70;;;18.40;99.90;;;;;;4896110;29;20059;-71
2023/08/10 11:55:45;;;;;;;10.10;4.57;;;18.90;99.90;;;;;;4894176;29;20041;-71
2023/08/10 11:58:13;;;;;;;8.80;5.07;;;18.80;99.90;;;;;;4901965;29;20040;-71
2023/08/10 12:00:41;;;;;;;10.70;4.82;;;18.70;99.90;;;;;;4902300;29;20052;-71
2023/08/10 12:03:18;;;;;;;15.82;5.32;;;19.30;99.90;;;;;;4900744;29;20385;-71
2023/08/10 12:05:50;;;;;;;20.27;6.50;;;20.00;99.90;;;;;;4901186;29;20045;-71
2023/08/10 12:08:16;;;;;;;12.18;5.10;;;20.10;99.90;;;;;;4902868;29;20116;-71
2023/08/10 12:10:48;;;;;;;15.07;5.53;;;19.90;99.90;;;;;;4900193;29;20045;-70
2023/08/10 12:13:33;;;;;;;13.20;5.40;;;18.90;99.90;;;;;;4896961;29;20172;-70
2023/08/10 12:16:52;;;;;;;10.77;5.07;;;19.20;99.90;;;;;;4883944;29;20117;-70
2023/08/10 12:19:35;;;;;;;12.35;5.45;;;19.50;99.90;;;;;;4884250;29;20052;-74
2023/08/10 12:22:07;;;;;;;11.20;5.65;;;18.70;99.90;;;;;;4884296;29;20048;-74
2023/08/10 12:24:33;;;;;;;14.55;5.25;;;20.30;99.90;;;;;;4883228;29;20049;-74
2023/08/10 12:26:59;;;;;;;14.80;6.05;;;;;;;;;;4883858;29;20041;-74
2023/08/10 12:29:24;;;;;;;13.73;6.03;;;18.40;99.90;;;;;;4883854;29;20081;-74
2023/08/10 12:31:51;;;;;;;13.52;6.07;;;;;;;;;;4883786;29;20087;-74
2023/08/10 12:34:16;;;;;;;16.38;6.78;;;20.50;99.90;;;;;;4885081;29;20053;-74
2023/08/10 12:36:42;;;;;;;9.63;6.05;;;;;;;;;;4893776;29;20040;-74
2023/08/10 12:39:09;;;;;;;13.55;7.20;;;19.50;99.90;;;;;;4902927;29;20044;-74
2023/08/10 12:41:35;;;;;;;18.40;7.90;;;;;;;;;;4902369;29;20115;-75
2023/08/10 12:44:01;;;;;;;19.95;8.55;;;;;;;;;;4877416;29;20523;-74
2023/08/10 12:46:27;;;;;;;18.60;7.50;;;19.10;99.90;;;;;;4883786;29;20463;-74
2023/08/10 12:48:53;;;;;;;19.33;7.00;;;;;;;;;;4898787;29;20037;-74
2023/08/10 12:51:19;;;;;;;16.38;7.10;;;19.00;99.90;;;;;;4884349;29;20380;-74
2023/08/10 12:53:45;;;;;;;15.93;6.78;;;20.00;99.90;;;;;;4886783;29;20051;-74
2023/08/10 12:56:11;;;;;;;19.20;8.60;;;;;;;;;;4883615;29;20133;-74
2023/08/10 12:58:37;;;;;;;18.25;9.43;;;20.20;99.90;;;;;;4883609;29;20083;-74
2023/08/10 13:01:03;;;;;;;26.90;10.38;;;;;;;;;;4883496;29;20102;-74
2023/08/10 13:03:31;;;;;;;17.98;8.57;;;;;;;;;;4883780;29;20446;-74
2023/08/10 13:05:56;;;;;;;20.42;8.90;;;19.00;99.90;;;;;;4884793;29;20084;-74
2023/08/10 13:08:23;;;;;;;20.80;8.55;;;;;;;;;;4890315;29;20086;-74
2023/08/10 13:10:49;;;;;;;24.95;10.40;;;;;;;;;;4880645;29;20051;-71
2023/08/10 13:13:15;;;;;;;17.77;8.65;;;19.20;99.90;;;;;;4880594;29;20094;-71
2023/08/10 13:15:41;;;;;;;13.88;6.40;;;;;;;;;;4881810;29;20052;-71
2023/08/10 13:18:08;;;;;;;18.90;8.90;;;;;;;;;;4884726;29;20045;-71
2023/08/10 13:20:34;;;;;;;28.98;13.30;;;20.30;99.90;;;;;;4885516;29;20100;-71
2023/08/10 13:23:00;;;;;;;26.77;12.80;;;;;;;;;;4892742;29;20041;-70
2023/08/10 13:25:26;;;;;;;30.40;14.57;;;21.00;99.90;;;;;;4880776;29;20440;-70
2023/08/10 13:27:52;;;;;;;28.27;12.95;;;19.30;99.90;;;;;;4881513;29;20045;-70
2023/08/10 13:30:18;;;;;;;29.83;11.32;;;;;;;;;;4880274;29;20057;-70
2023/08/10 13:32:44;;;;;;;25.55;14.52;;;19.80;99.90;;;;;;4880933;29;20041;-70
2023/08/10 13:35:09;;;;;;;25.80;14.13;;;20.80;99.90;;;;;;4881510;29;20376;-70
2023/08/10 13:37:38;;;;;;;26.30;14.52;;;19.70;99.90;;;;;;4881578;29;20075;-70
2023/08/10 13:40:05;;;;;;;20.25;12.60;;;19.30;99.90;;;;;;4864989;29;20053;-70
2023/08/10 13:42:33;;;;;;;29.73;12.85;;;19.90;99.90;;;;;;4879763;29;20064;-70
2023/08/10 13:44:58;;;;;;;23.50;13.77;;;20.50;99.90;;;;;;4879915;29;20529;-70
2023/08/10 13:47:24;;;;;;;18.63;11.05;;;;;;;;;;4879801;29;20049;-71
2023/08/10 13:49:51;;;;;;;29.27;13.20;;;19.70;99.90;;;;;;4879838;29;20056;-70
2023/08/10 13:52:17;;;;;;;25.90;11.73;;;;;;;;;;4880350;29;20049;-70
2023/08/10 13:54:43;;;;;;;28.52;12.95;;;21.60;99.90;;;;;;4879997;29;20131;-70